createdAt,value
2022-12-01T00:01:19.197Z,47.95
2022-12-01T00:03:47.199Z,50.72
2022-12-01T00:06:17.099Z,53.80
2022-12-01T00:09:06.469Z,48.72
2022-12-01T00:11:34.333Z,49.42
2022-12-01T00:14:02.529Z,49.22
2022-12-01T00:16:32.569Z,42.67
2022-12-01T00:19:00.910Z,50.03
2022-12-01T00:21:29.618Z,46.17
2022-12-01T00:23:59.446Z,52.58
2022-12-01T00:26:28.626Z,44.67
2022-12-01T00:28:57.823Z,43.10
2022-12-01T00:31:26.645Z,50.55
2022-12-01T00:33:56.357Z,46.75
2022-12-01T00:36:25.077Z,47.70
2022-12-01T00:38:54.403Z,52.72
2022-12-01T00:41:23.144Z,51.40
2022-12-01T00:43:51.276Z,47.90
2022-12-01T00:46:19.474Z,48.13
2022-12-01T00:48:47.541Z,50.13
2022-12-01T00:51:16.838Z,48.85
2022-12-01T00:53:44.823Z,45.40
2022-12-01T00:56:12.756Z,48.72
2022-12-01T00:58:40.696Z,50.17
2022-12-01T01:01:08.999Z,51.70
2022-12-01T01:03:37.146Z,51.10
2022-12-01T01:06:06.888Z,51.83
2022-12-01T01:08:36.636Z,51.95
2022-12-01T01:11:05.862Z,52.10
2022-12-01T01:13:34.666Z,46.60
2022-12-01T01:16:05.307Z,56.10
2022-12-01T01:18:34.047Z,52.95
2022-12-01T01:21:03.458Z,43.30
2022-12-01T01:23:31.434Z,52.83
2022-12-01T01:26:04.895Z,53.95
2022-12-01T01:28:33.272Z,49.50
2022-12-01T01:31:05.507Z,56.42
2022-12-01T01:33:33.687Z,48.38
2022-12-01T01:36:02.186Z,56.10
2022-12-01T01:38:31.032Z,51.33
2022-12-01T01:40:59.182Z,50.45
2022-12-01T01:43:44.602Z,50.13
2022-12-01T01:46:14.422Z,55.45
2022-12-01T01:48:44.784Z,53.25
2022-12-01T01:51:13.903Z,51.88
2022-12-01T01:53:42.873Z,54.30
2022-12-01T01:56:11.247Z,48.53
2022-12-01T01:58:42.263Z,51.70
2022-12-01T02:01:10.317Z,54.92
2022-12-01T02:03:40.902Z,56.20
2022-12-01T02:06:10.499Z,55.00
2022-12-01T02:08:38.866Z,50.85
2022-12-01T02:11:48.514Z,55.47
2022-12-01T02:14:56.638Z,52.72
2022-12-01T02:17:33.585Z,49.22
2022-12-01T02:20:24.463Z,50.40
2022-12-01T02:23:14.092Z,51.47
2022-12-01T02:25:50.181Z,59.65
2022-12-01T02:28:35.741Z,55.72
2022-12-01T02:31:09.287Z,58.40
2022-12-01T02:33:43.174Z,55.60
2022-12-01T02:36:16.727Z,56.65
2022-12-01T02:38:53.827Z,54.75
2022-12-01T02:41:27.404Z,57.13
2022-12-01T02:44:02.964Z,53.70
2022-12-01T02:46:35.240Z,52.45
2022-12-01T02:49:08.570Z,52.22
2022-12-01T02:51:39.124Z,58.33
2022-12-01T02:54:07.526Z,55.90
2022-12-01T02:56:35.581Z,57.08
2022-12-01T02:59:03.531Z,49.08
2022-12-01T03:01:50.748Z,56.05
2022-12-01T03:04:38.937Z,54.22
2022-12-01T03:07:15.590Z,55.30
2022-12-01T03:09:53.903Z,53.30
2022-12-01T03:12:29.925Z,55.33
2022-12-01T03:15:05.288Z,58.35
2022-12-01T03:17:39.902Z,51.20
2022-12-01T03:20:13.944Z,56.33
2022-12-01T03:22:45.649Z,57.00
2022-12-01T03:25:16.485Z,59.03
2022-12-01T03:28:06.697Z,60.20
2022-12-01T03:30:37.860Z,57.22
2022-12-01T03:33:11.846Z,58.40
2022-12-01T03:35:43.763Z,56.28
2022-12-01T03:38:15.644Z,65.38
2022-12-01T03:40:45.972Z,59.67
2022-12-01T03:43:20.639Z,61.17
2022-12-01T03:45:56.378Z,62.92
2022-12-01T03:48:26.690Z,63.10
2022-12-01T03:51:02.193Z,66.53
2022-12-01T03:53:39.029Z,64.55
2022-12-01T03:56:08.988Z,61.20
2022-12-01T03:58:41.221Z,64.72
2022-12-01T04:01:09.950Z,67.15
2022-12-01T04:03:39.365Z,62.85
2022-12-01T04:06:07.936Z,61.30
2022-12-01T04:08:37.443Z,71.35
2022-12-01T04:11:32.220Z,58.63
2022-12-01T04:13:59.553Z,58.15
2022-12-01T04:16:27.604Z,62.00
2022-12-01T04:18:57.150Z,69.40
2022-12-01T04:21:25.054Z,57.47
2022-12-01T04:24:01.732Z,62.28
2022-12-01T04:26:30.748Z,58.50
2022-12-01T04:28:59.446Z,64.18
2022-12-01T04:31:27.755Z,71.57
2022-12-01T04:33:57.745Z,60.65
2022-12-01T04:36:26.114Z,66.35
2022-12-01T04:38:54.002Z,72.50
2022-12-01T04:41:22.010Z,76.18
2022-12-01T04:43:49.935Z,71.82
2022-12-01T04:46:17.881Z,61.03
2022-12-01T04:48:46.209Z,60.00
2022-12-01T04:51:15.700Z,66.13
2022-12-01T04:53:43.681Z,55.72
2022-12-01T04:56:11.801Z,54.08
2022-12-01T04:58:39.789Z,60.10
2022-12-01T05:01:10.393Z,59.30
2022-12-01T05:03:39.131Z,58.95
2022-12-01T05:06:11.588Z,57.78
2022-12-01T05:08:41.491Z,62.40
2022-12-01T05:11:12.205Z,55.03
2022-12-01T05:13:41.117Z,60.30
2022-12-01T05:16:11.366Z,59.72
2022-12-01T05:18:39.583Z,63.13
2022-12-01T05:21:09.250Z,54.35
2022-12-01T05:23:38.590Z,58.22
2022-12-01T05:26:09.285Z,64.93
2022-12-01T05:28:37.262Z,61.80
2022-12-01T05:31:05.768Z,58.13
2022-12-01T05:33:33.682Z,57.38
2022-12-01T05:36:01.810Z,57.40
2022-12-01T05:38:29.821Z,61.50
2022-12-01T05:40:57.713Z,57.67
2022-12-01T05:43:29.320Z,71.60
2022-12-01T05:46:00.821Z,67.70
2022-12-01T05:48:28.820Z,62.55
2022-12-01T05:50:56.941Z,64.55
2022-12-01T05:53:24.938Z,65.00
2022-12-01T05:55:54.292Z,59.55
2022-12-01T05:58:22.310Z,63.05
2022-12-01T06:00:51.770Z,56.95
2022-12-01T06:03:22.551Z,58.78
2022-12-01T06:05:50.905Z,62.35
2022-12-01T06:08:18.890Z,45.85
2022-12-01T06:10:47.223Z,51.83
2022-12-01T06:13:15.160Z,57.15
2022-12-01T06:15:43.285Z,53.90
2022-12-01T06:18:12.739Z,49.05
2022-12-01T06:20:40.678Z,55.50
2022-12-01T06:23:08.595Z,51.60
2022-12-01T06:25:36.480Z,51.20
2022-12-01T06:28:04.676Z,52.08
2022-12-01T06:30:32.631Z,51.95
2022-12-01T06:33:00.519Z,59.60
2022-12-01T06:35:29.871Z,50.92
2022-12-01T06:37:57.810Z,51.45
2022-12-01T06:40:25.795Z,56.80
2022-12-01T06:42:53.882Z,53.80
2022-12-01T06:45:21.903Z,55.60
2022-12-01T06:47:53.907Z,59.65
2022-12-01T06:50:21.923Z,42.33
2022-12-01T06:52:52.670Z,52.33
2022-12-01T06:55:20.809Z,47.40
2022-12-01T06:57:48.965Z,46.08
2022-12-01T07:00:18.226Z,53.42
2022-12-01T07:02:47.216Z,40.00
2022-12-01T07:05:15.301Z,42.35
2022-12-01T07:07:43.276Z,49.28
2022-12-01T07:10:13.713Z,51.00
2022-12-01T07:12:41.862Z,43.85
2022-12-01T07:15:10.504Z,38.55
2022-12-01T07:17:38.484Z,41.83
2022-12-01T07:20:07.656Z,43.20
2022-12-01T07:22:36.095Z,52.92
2022-12-01T07:25:04.258Z,53.28
2022-12-01T07:27:33.548Z,47.95
2022-12-01T07:30:02.242Z,47.55
2022-12-01T07:32:30.226Z,47.33
2022-12-01T07:34:58.194Z,48.03
2022-12-01T07:37:26.265Z,51.42
2022-12-01T07:39:54.177Z,55.65
2022-12-01T07:42:22.108Z,50.75
2022-12-01T07:44:51.333Z,55.70
2022-12-01T07:47:19.871Z,62.15
2022-12-01T07:49:48.236Z,61.33
2022-12-01T07:52:16.460Z,58.45
2022-12-01T07:54:44.350Z,65.65
2022-12-01T07:57:14.247Z,61.55
2022-12-01T07:59:42.283Z,64.35
2022-12-01T08:02:12.246Z,53.28
2022-12-01T08:04:40.473Z,64.13
2022-12-01T08:07:08.544Z,73.95
2022-12-01T08:09:37.196Z,58.47
2022-12-01T08:12:05.561Z,60.55
2022-12-01T08:14:36.091Z,66.32
2022-12-01T08:17:04.089Z,60.08
2022-12-01T08:19:33.736Z,58.75
2022-12-01T08:22:01.804Z,57.85
2022-12-01T08:24:30.876Z,51.90
2022-12-01T08:26:58.803Z,52.03
2022-12-01T08:29:30.775Z,54.42
2022-12-01T08:31:58.868Z,52.45
2022-12-01T08:34:26.859Z,55.45
2022-12-01T08:36:56.113Z,49.85
2022-12-01T08:39:24.075Z,46.13
2022-12-01T08:41:52.008Z,58.53
2022-12-01T08:44:20.024Z,51.50
2022-12-01T08:46:48.024Z,52.53
2022-12-01T08:49:16.158Z,50.28
2022-12-01T08:51:44.131Z,45.75
2022-12-01T08:54:13.539Z,50.92
2022-12-01T08:56:43.351Z,48.42
2022-12-01T08:59:11.398Z,56.53
2022-12-01T09:01:51.816Z,50.28
2022-12-01T09:04:21.192Z,45.15
2022-12-01T09:06:50.583Z,45.72
2022-12-01T09:09:21.536Z,52.85
2022-12-01T09:11:52.132Z,47.70
2022-12-01T09:14:21.338Z,46.10
2022-12-01T09:16:51.019Z,44.75
2022-12-01T09:19:24.761Z,56.05
2022-12-01T09:21:54.114Z,51.03
2022-12-01T09:24:24.151Z,55.85
2022-12-01T09:26:56.226Z,51.40
2022-12-01T09:29:24.288Z,51.95
2022-12-01T09:31:52.636Z,41.03
2022-12-01T09:34:21.294Z,47.33
2022-12-01T09:36:49.430Z,47.42
2022-12-01T09:39:19.833Z,35.83
2022-12-01T09:41:52.998Z,40.92
2022-12-01T09:44:32.949Z,51.28
2022-12-01T09:47:08.823Z,52.88
2022-12-01T09:49:46.881Z,49.90
2022-12-01T09:52:17.978Z,48.58
2022-12-01T09:54:46.927Z,49.50
2022-12-01T09:57:25.567Z,42.45
2022-12-01T09:59:54.508Z,42.50
2022-12-01T10:02:29.491Z,49.00
2022-12-01T10:05:00.658Z,44.22
2022-12-01T10:07:31.724Z,37.15
2022-12-01T10:10:02.216Z,42.53
2022-12-01T10:12:35.813Z,47.28
2022-12-01T10:15:16.502Z,39.80
2022-12-01T10:17:58.241Z,39.50
2022-12-01T10:20:32.456Z,46.97
2022-12-01T10:23:30.935Z,47.75
2022-12-01T10:26:01.677Z,38.60
2022-12-01T10:28:54.076Z,48.47
2022-12-01T10:31:32.786Z,38.58
2022-12-01T10:34:03.237Z,46.45
2022-12-01T10:36:33.889Z,49.03
2022-12-01T10:39:02.571Z,53.95
2022-12-01T10:41:34.799Z,44.10
2022-12-01T10:44:06.868Z,50.97
2022-12-01T10:46:41.863Z,43.45
2022-12-01T10:49:12.290Z,48.35
2022-12-01T10:51:53.388Z,44.42
2022-12-01T10:54:22.885Z,42.40
2022-12-01T10:56:56.846Z,49.08
2022-12-01T10:59:32.075Z,55.67
2022-12-01T11:02:02.547Z,54.97
2022-12-01T11:04:46.043Z,43.20
2022-12-01T11:07:20.400Z,49.25
2022-12-01T11:10:00.994Z,52.78
2022-12-01T11:12:29.698Z,48.47
2022-12-01T11:14:59.486Z,53.83
2022-12-01T11:17:31.586Z,44.95
2022-12-01T11:20:00.302Z,48.70
2022-12-01T11:22:30.897Z,50.20
2022-12-01T11:25:01.779Z,43.78
2022-12-01T11:27:34.352Z,40.42
2022-12-01T11:30:07.039Z,50.80
2022-12-01T11:32:38.294Z,44.97
2022-12-01T11:35:16.590Z,48.25
2022-12-01T11:38:13.372Z,51.97
2022-12-01T11:40:46.968Z,47.72
2022-12-01T11:43:26.293Z,45.47
2022-12-01T11:45:58.681Z,39.28
2022-12-01T11:48:29.396Z,49.28
2022-12-01T11:51:04.355Z,46.25
2022-12-01T11:53:34.588Z,44.17
2022-12-01T11:56:18.042Z,43.70
2022-12-01T11:58:48.770Z,40.78
2022-12-01T12:01:29.351Z,41.97
2022-12-01T12:04:07.644Z,47.92
2022-12-01T12:06:43.213Z,48.08
2022-12-01T12:09:40.141Z,41.75
2022-12-01T12:12:23.156Z,44.47
2022-12-01T12:15:01.650Z,47.38
2022-12-01T12:17:49.421Z,50.30
2022-12-01T12:20:32.399Z,44.92
2022-12-01T12:23:16.833Z,42.70
2022-12-01T12:25:55.057Z,39.28
2022-12-01T12:28:38.733Z,40.72
2022-12-01T12:31:15.707Z,39.28
2022-12-01T12:34:23.643Z,39.20
2022-12-01T12:37:06.917Z,42.55
2022-12-01T12:39:51.357Z,45.88
2022-12-01T12:42:29.384Z,47.15
2022-12-01T12:45:06.170Z,45.00
2022-12-01T12:47:52.082Z,43.47
2022-12-01T12:50:28.322Z,43.42
2022-12-01T12:53:00.531Z,45.47
2022-12-01T12:55:34.024Z,46.65
2022-12-01T12:58:11.082Z,37.92
2022-12-01T13:00:45.399Z,42.05
2022-12-01T13:03:18.709Z,50.80
2022-12-01T13:05:51.573Z,37.65
2022-12-01T13:08:24.355Z,41.63
2022-12-01T13:10:58.980Z,45.22
2022-12-01T13:13:32.320Z,48.00
2022-12-01T13:16:03.484Z,47.20
2022-12-01T13:18:40.285Z,51.20
2022-12-01T13:21:17.207Z,42.25
2022-12-01T13:23:46.914Z,46.75
2022-12-01T13:26:18.200Z,41.08
2022-12-01T13:28:50.532Z,44.08
2022-12-01T13:31:20.985Z,46.75
2022-12-01T13:33:56.774Z,48.75
2022-12-01T13:39:19.991Z,42.70
2022-12-01T13:41:58.935Z,34.90
2022-12-01T13:44:29.563Z,40.95
2022-12-01T13:47:00.234Z,37.55
2022-12-01T13:49:41.976Z,36.53
2022-12-01T13:52:33.834Z,41.40
2022-12-01T13:55:24.165Z,42.70
2022-12-01T13:58:26.278Z,48.88
2022-12-01T14:01:15.013Z,47.53
2022-12-01T14:03:53.868Z,49.95
2022-12-01T14:06:27.999Z,49.00
2022-12-01T14:09:00.798Z,46.58
2022-12-01T14:11:32.037Z,43.50
2022-12-01T14:14:03.730Z,41.17
2022-12-01T14:16:48.154Z,41.55
2022-12-01T14:19:29.425Z,37.38
2022-12-01T14:21:58.517Z,42.72
2022-12-01T14:24:31.219Z,49.17
2022-12-01T14:27:00.862Z,43.47
2022-12-01T14:29:32.107Z,39.15
2022-12-01T14:32:22.378Z,44.55
2022-12-01T14:35:01.538Z,51.25
2022-12-01T14:37:38.288Z,50.00
2022-12-01T14:40:13.716Z,44.42
2022-12-01T14:43:04.039Z,51.35
2022-12-01T14:45:39.279Z,48.85
2022-12-01T14:48:13.531Z,46.10
2022-12-01T14:50:46.957Z,50.65
2022-12-01T14:53:22.252Z,44.28
2022-12-01T14:55:56.157Z,45.55
2022-12-01T14:58:29.256Z,55.90
2022-12-01T15:01:07.159Z,48.25
2022-12-01T15:03:42.464Z,59.70
2022-12-01T15:06:17.032Z,54.22
2022-12-01T15:08:58.422Z,49.10
2022-12-01T15:11:33.212Z,51.33
2022-12-01T15:14:02.669Z,46.42
2022-12-01T15:16:31.994Z,57.50
2022-12-01T15:19:00.174Z,44.25
2022-12-01T15:21:30.963Z,49.08
2022-12-01T15:24:02.134Z,44.70
2022-12-01T15:26:32.786Z,49.65
2022-12-01T15:29:16.980Z,49.88
2022-12-01T15:31:47.644Z,47.00
2022-12-01T15:34:18.306Z,50.17
2022-12-01T15:36:47.226Z,40.40
2022-12-01T15:39:17.769Z,48.38
2022-12-01T15:41:48.259Z,47.38
2022-12-01T15:44:26.734Z,46.22
2022-12-01T15:46:55.325Z,53.33
2022-12-01T15:49:29.552Z,51.47
2022-12-01T15:52:07.367Z,53.47
2022-12-01T15:54:37.742Z,50.83
2022-12-01T15:57:07.040Z,47.90
2022-12-01T15:59:40.282Z,40.92
2022-12-01T16:02:23.458Z,49.47
2022-12-01T16:05:02.204Z,51.13
2022-12-01T16:08:04.891Z,52.30
2022-12-01T16:10:31.333Z,45.15
2022-12-01T16:13:38.830Z,41.25
2022-12-01T16:16:40.828Z,39.67
2022-12-01T16:19:28.174Z,35.03
2022-12-01T16:22:00.971Z,39.80
2022-12-01T16:24:32.564Z,41.72
2022-12-01T16:27:03.559Z,56.78
2022-12-01T16:29:34.990Z,40.70
2022-12-01T16:32:21.095Z,43.63
2022-12-01T16:34:51.037Z,47.70
2022-12-01T16:37:19.262Z,36.72
2022-12-01T16:39:47.245Z,39.40
2022-12-01T16:42:17.495Z,41.13
2022-12-01T16:44:46.610Z,50.58
2022-12-01T16:47:20.369Z,47.08
2022-12-01T16:49:48.903Z,45.58
2022-12-01T16:55:06.060Z,52.88
2022-12-01T16:57:34.020Z,48.97
2022-12-01T17:00:02.256Z,40.97
2022-12-01T17:02:31.749Z,38.72
2022-12-01T17:04:59.983Z,47.45
2022-12-01T17:07:28.050Z,42.97
2022-12-01T17:09:56.162Z,46.47
2022-12-01T17:12:26.332Z,45.30
2022-12-01T17:14:54.373Z,45.75
2022-12-01T17:17:22.295Z,40.80
2022-12-01T17:19:53.888Z,46.97
2022-12-01T17:22:21.978Z,45.85
2022-12-01T17:24:50.783Z,48.42
2022-12-01T17:27:19.148Z,42.72
2022-12-01T17:29:47.212Z,44.33
2022-12-01T17:32:15.723Z,46.70
2022-12-01T17:34:43.714Z,58.13
2022-12-01T17:37:19.058Z,52.88
2022-12-01T17:39:49.117Z,55.22
2022-12-01T17:42:17.434Z,57.50
2022-12-01T17:44:45.653Z,55.65
2022-12-01T17:47:13.925Z,52.17
2022-12-01T17:49:42.002Z,46.42
2022-12-01T17:52:09.992Z,50.22
2022-12-01T17:54:39.460Z,46.22
2022-12-01T17:57:08.379Z,49.53
2022-12-01T17:59:37.709Z,53.10
2022-12-01T18:02:06.094Z,54.15
2022-12-01T18:04:35.794Z,49.10
2022-12-01T18:07:03.854Z,48.35
2022-12-01T18:09:32.085Z,43.63
2022-12-01T18:12:02.013Z,50.85
2022-12-01T18:14:32.691Z,52.75
2022-12-01T18:17:00.706Z,59.63
2022-12-01T18:19:28.666Z,53.80
2022-12-01T18:21:56.949Z,43.22
2022-12-01T18:24:26.465Z,47.55
2022-12-01T18:26:55.857Z,39.65
2022-12-01T18:29:28.546Z,47.85
2022-12-01T18:31:57.172Z,43.90
2022-12-01T18:34:25.991Z,42.20
2022-12-01T18:36:54.079Z,43.13
2022-12-01T18:39:22.278Z,43.15
2022-12-01T18:41:50.542Z,42.95
2022-12-01T18:44:18.712Z,47.30
2022-12-01T18:46:48.231Z,39.72
2022-12-01T18:49:16.675Z,41.35
2022-12-01T18:51:44.780Z,49.13
2022-12-01T18:54:14.967Z,41.08
2022-12-01T18:56:43.370Z,46.45
2022-12-01T18:59:12.901Z,50.53
2022-12-01T19:01:44.162Z,42.38
2022-12-01T19:04:15.726Z,42.45
2022-12-01T19:06:45.538Z,53.90
2022-12-01T19:09:15.361Z,41.55
2022-12-01T19:11:44.296Z,48.88
2022-12-01T19:14:16.674Z,49.53
2022-12-01T19:16:46.069Z,50.30
2022-12-01T19:19:15.704Z,40.30
2022-12-01T19:21:45.151Z,49.42
2022-12-01T19:24:13.926Z,53.20
2022-12-01T19:26:42.073Z,43.67
2022-12-01T19:29:10.115Z,51.72
2022-12-01T19:31:38.398Z,47.75
2022-12-01T19:34:07.441Z,50.05
2022-12-01T19:36:36.940Z,55.40
2022-12-01T19:39:07.658Z,52.53
2022-12-01T19:41:38.553Z,51.42
2022-12-01T19:44:06.875Z,47.78
2022-12-01T19:46:35.515Z,50.90
2022-12-01T19:49:04.965Z,52.95
2022-12-01T19:51:35.145Z,42.88
2022-12-01T19:54:05.790Z,45.55
2022-12-01T19:56:34.462Z,45.95
2022-12-01T19:59:02.894Z,48.15
2022-12-01T20:01:31.458Z,44.40
2022-12-01T20:03:59.787Z,48.03
2022-12-01T20:06:29.680Z,46.35
2022-12-01T20:08:59.184Z,45.65
2022-12-01T20:11:29.742Z,47.25
2022-12-01T20:13:57.940Z,47.67
2022-12-01T20:16:28.376Z,39.72
2022-12-01T20:18:56.501Z,45.05
2022-12-01T20:21:26.392Z,39.63
2022-12-01T20:23:58.239Z,50.10
2022-12-01T20:26:31.059Z,47.33
2022-12-01T20:29:01.625Z,53.83
2022-12-01T20:31:31.950Z,39.10
2022-12-01T20:34:02.679Z,50.63
2022-12-01T20:36:32.101Z,35.08
2022-12-01T20:39:00.298Z,36.45
2022-12-01T20:41:29.831Z,44.75
2022-12-01T20:44:02.359Z,38.72
2022-12-01T20:46:34.231Z,43.25
2022-12-01T20:49:02.506Z,36.08
2022-12-01T20:51:33.173Z,44.38
2022-12-01T20:54:26.748Z,37.33
2022-12-01T20:56:51.075Z,35.45
2022-12-01T20:59:19.200Z,32.72
2022-12-01T21:01:47.374Z,36.40
2022-12-01T21:04:15.388Z,38.38
2022-12-01T21:06:43.616Z,35.92
2022-12-01T21:09:12.976Z,34.58
2022-12-01T21:12:04.581Z,34.03
2022-12-01T21:14:38.313Z,31.23
2022-12-01T21:17:19.344Z,37.00
2022-12-01T21:19:56.390Z,36.13
2022-12-01T21:22:25.856Z,30.60
2022-12-01T21:25:02.678Z,36.03
2022-12-01T21:27:37.224Z,35.22
2022-12-01T21:30:18.971Z,34.40
2022-12-01T21:32:47.933Z,33.22
2022-12-01T21:35:19.859Z,31.25
2022-12-01T21:37:49.246Z,30.50
2022-12-01T21:40:20.749Z,35.33
2022-12-01T21:42:49.345Z,37.42
2022-12-01T21:45:23.511Z,38.42
2022-12-01T21:47:51.595Z,35.20
2022-12-01T21:50:23.745Z,37.17
2022-12-01T21:52:52.103Z,35.78
2022-12-01T21:55:37.150Z,36.50
2022-12-01T21:58:24.400Z,33.17
2022-12-01T22:01:00.598Z,34.92
2022-12-01T22:03:34.398Z,35.00
2022-12-01T22:08:54.607Z,34.03
2022-12-01T22:11:24.165Z,36.47
2022-12-01T22:13:55.958Z,40.53
2022-12-01T22:16:31.040Z,38.42
2022-12-01T22:19:01.257Z,40.22
2022-12-01T22:21:33.968Z,40.92
2022-12-01T22:24:23.819Z,41.60
2022-12-01T22:26:58.197Z,45.65
2022-12-01T22:29:34.822Z,39.95
2022-12-01T22:32:41.257Z,38.33
2022-12-01T22:35:27.320Z,44.38
2022-12-01T22:37:59.257Z,46.70
2022-12-01T22:40:34.928Z,40.63
2022-12-01T22:43:28.424Z,51.20
2022-12-01T22:46:16.521Z,41.75
2022-12-01T22:48:46.440Z,52.95
2022-12-01T22:51:28.685Z,49.88
2022-12-01T22:54:01.275Z,54.08
2022-12-01T22:56:34.630Z,48.35
2022-12-01T22:59:11.452Z,50.33
2022-12-01T23:01:44.183Z,43.88
2022-12-01T23:04:34.372Z,48.65
2022-12-01T23:07:11.153Z,52.15
2022-12-01T23:09:41.886Z,45.50
2022-12-01T23:12:26.272Z,40.53
2022-12-01T23:14:59.055Z,37.67
2022-12-01T23:17:29.653Z,41.25
2022-12-01T23:20:26.048Z,41.60
2022-12-01T23:22:56.030Z,40.95
2022-12-01T23:25:25.147Z,34.67
2022-12-01T23:27:54.981Z,34.72
2022-12-01T23:30:23.990Z,41.88
2022-12-01T23:33:00.342Z,33.92
2022-12-01T23:35:28.377Z,33.25
2022-12-01T23:37:57.764Z,37.22
2022-12-01T23:40:30.937Z,28.77
2022-12-01T23:42:59.931Z,38.85
2022-12-01T23:45:28.772Z,34.20
2022-12-01T23:47:57.639Z,36.60
2022-12-01T23:50:28.429Z,33.45
2022-12-01T23:52:58.087Z,40.92
2022-12-01T23:55:29.472Z,39.67
2022-12-01T23:57:59.237Z,42.92
